Portage Des Sioux, MO

9:29 AM CST on February 13, 2016 (GMT -0600)
Saint Charles County Smartt | | Change Station
CLOSE
Current Station
Airport
Location: St. Charles,
Elevation: 436 ft
Nearby Weather Stations

Elev 436 ft 38.93 °N, 90.43 °W | Updated 35 minutes ago

Clear
Clear
13 °F
Feels Like 5 °F
N
5
Wind Variable Wind from North

Today
High -- | Low -- °F
--% Chance of Precip.
Yesterday
High -- | Low -- °F
Precip. -- in
Pressure 30.71 in
Visibility 10.0 miles
Clouds Clear
Windchill 5 °F
Dew Point 0 °F
Humidity 56%
Rainfall 0.00 in
Snow Depth Not available.
6:55 AM 5:36 PM
Waxing Crescent, 31% visible
METAR KSET 131454Z AUTO 01004KT 10SM CLR M11/M18 A3069 RMK AO2 SLP398 T11061178 51012
Pressure 30.71 in
Visibility 10.0 miles
Clouds Clear
Windchill 5 °F
Dew Point 0 °F
Humidity 56%
Rainfall 0.00 in
Snow Depth Not available.
6:55 AM 5:36 PM
Waxing Crescent, 31% visible
METAR KSET 131454Z AUTO 01004KT 10SM CLR M11/M18 A3069 RMK AO2 SLP398 T11061178 51012

10-Day Weather Forecast

Almanac

Astronomy

Feb. 13, 2016 Rise Set
Actual Time
Civil Twilight
Nautical Twilight
Astronomical Twilight
Moon
Length of Visible Light
Length of Day
Tomorrow will be .
, % of the Moon is Illuminated

Today's Extremes

State Highs State Lows

Community

WunderPhotos

Upload Photos

1,892,580 photos uploaded!

WunderBlog® & News

Nearby

Air Quality

  Air Quality AQ Index Pollutant
Not available.

Snow Depth

Station Depth Elevation

Earthquake Activity

City Distance Mag. Time & Date
Minimum magnitude displayed is 2.5.

Coastal Water Temperatures

Place Temperature

Stations

Nearby Weather Stations

Station Location Temp. Windchill Dew Point Humidity Wind Precip. Elev Updated Type
                   

Watches & Warnings

There are currently no watches in effect.